sensor_id;sensor_type;location;lat;lon;timestamp;pressure;altitude;pressure_sealevel;temperature
19282;BMP180;9774;52.034;5.342;2022-08-04T00:00:57;101178.00;;;28.10
19282;BMP180;9774;52.034;5.342;2022-08-04T00:03:30;101174.00;;;28.10
19282;BMP180;9774;52.034;5.342;2022-08-04T00:06:02;101170.00;;;28.10
19282;BMP180;9774;52.034;5.342;2022-08-04T00:08:43;101173.00;;;27.90
19282;BMP180;9774;52.034;5.342;2022-08-04T00:11:15;101162.00;;;28.00
19282;BMP180;9774;52.034;5.342;2022-08-04T00:13:51;101168.00;;;28.00
19282;BMP180;9774;52.034;5.342;2022-08-04T00:16:22;101162.00;;;28.00
19282;BMP180;9774;52.034;5.342;2022-08-04T00:18:52;101164.00;;;28.00
19282;BMP180;9774;52.034;5.342;2022-08-04T00:21:23;101162.00;;;27.90
19282;BMP180;9774;52.034;5.342;2022-08-04T00:23:54;101162.00;;;27.90
19282;BMP180;9774;52.034;5.342;2022-08-04T00:26:21;101154.00;;;27.90
19282;BMP180;9774;52.034;5.342;2022-08-04T00:28:49;101159.00;;;27.90
19282;BMP180;9774;52.034;5.342;2022-08-04T00:31:17;101147.00;;;27.80
19282;BMP180;9774;52.034;5.342;2022-08-04T00:33:45;101154.00;;;27.80
19282;BMP180;9774;52.034;5.342;2022-08-04T00:36:13;101151.00;;;27.80
19282;BMP180;9774;52.034;5.342;2022-08-04T00:38:41;101145.00;;;27.80
19282;BMP180;9774;52.034;5.342;2022-08-04T00:41:18;101147.00;;;27.70
19282;BMP180;9774;52.034;5.342;2022-08-04T00:44:03;101148.00;;;27.70
19282;BMP180;9774;52.034;5.342;2022-08-04T00:46:56;101147.00;;;27.60
19282;BMP180;9774;52.034;5.342;2022-08-04T00:49:44;101146.00;;;27.60
19282;BMP180;9774;52.034;5.342;2022-08-04T00:52:27;101145.00;;;27.60
19282;BMP180;9774;52.034;5.342;2022-08-04T00:55:04;101151.00;;;27.60
19282;BMP180;9774;52.034;5.342;2022-08-04T00:57:54;101139.00;;;27.60
19282;BMP180;9774;52.034;5.342;2022-08-04T01:00:28;101144.00;;;27.60
19282;BMP180;9774;52.034;5.342;2022-08-04T01:03:10;101134.00;;;27.50
19282;BMP180;9774;52.034;5.342;2022-08-04T01:05:49;101138.00;;;27.50
19282;BMP180;9774;52.034;5.342;2022-08-04T01:08:41;101137.00;;;27.40
19282;BMP180;9774;52.034;5.342;2022-08-04T01:11:27;101132.00;;;27.50
19282;BMP180;9774;52.034;5.342;2022-08-04T01:14:10;101132.00;;;27.50
19282;BMP180;9774;52.034;5.342;2022-08-04T01:16:47;101133.00;;;27.40
19282;BMP180;9774;52.034;5.342;2022-08-04T01:19:35;101128.00;;;27.40
19282;BMP180;9774;52.034;5.342;2022-08-04T01:22:17;101127.00;;;27.40
19282;BMP180;9774;52.034;5.342;2022-08-04T01:25:03;101123.00;;;27.30
19282;BMP180;9774;52.034;5.342;2022-08-04T01:27:48;101117.00;;;27.30
19282;BMP180;9774;52.034;5.342;2022-08-04T01:30:24;101118.00;;;27.30
19282;BMP180;9774;52.034;5.342;2022-08-04T01:32:58;101120.00;;;27.30
19282;BMP180;9774;52.034;5.342;2022-08-04T01:35:31;101121.00;;;27.30
19282;BMP180;9774;52.034;5.342;2022-08-04T01:38:03;101120.00;;;27.20
19282;BMP180;9774;52.034;5.342;2022-08-04T01:40:34;101119.00;;;27.20
19282;BMP180;9774;52.034;5.342;2022-08-04T01:43:03;101122.00;;;27.20
19282;BMP180;9774;52.034;5.342;2022-08-04T01:45:33;101119.00;;;27.20
19282;BMP180;9774;52.034;5.342;2022-08-04T01:48:03;101119.00;;;27.10
19282;BMP180;9774;52.034;5.342;2022-08-04T01:50:34;101124.00;;;27.10
19282;BMP180;9774;52.034;5.342;2022-08-04T01:53:03;101116.00;;;27.10
19282;BMP180;9774;52.034;5.342;2022-08-04T01:55:30;101114.00;;;27.10
19282;BMP180;9774;52.034;5.342;2022-08-04T01:58:00;101117.00;;;27.00
19282;BMP180;9774;52.034;5.342;2022-08-04T02:00:28;101122.00;;;27.00
19282;BMP180;9774;52.034;5.342;2022-08-04T02:02:57;101116.00;;;27.00
19282;BMP180;9774;52.034;5.342;2022-08-04T02:05:26;101117.00;;;27.00
19282;BMP180;9774;52.034;5.342;2022-08-04T02:08:10;101123.00;;;26.80
19282;BMP180;9774;52.034;5.342;2022-08-04T02:10:53;101114.00;;;26.90
19282;BMP180;9774;52.034;5.342;2022-08-04T02:13:26;101111.00;;;26.90
19282;BMP180;9774;52.034;5.342;2022-08-04T02:16:00;101110.00;;;26.80
19282;BMP180;9774;52.034;5.342;2022-08-04T02:18:31;101102.00;;;26.80
19282;BMP180;9774;52.034;5.342;2022-08-04T02:21:00;101099.00;;;26.80
19282;BMP180;9774;52.034;5.342;2022-08-04T02:23:30;101094.00;;;26.80
19282;BMP180;9774;52.034;5.342;2022-08-04T02:26:03;101092.00;;;26.80
19282;BMP180;9774;52.034;5.342;2022-08-04T02:28:36;101104.00;;;26.70
19282;BMP180;9774;52.034;5.342;2022-08-04T02:31:17;101103.00;;;26.70
19282;BMP180;9774;52.034;5.342;2022-08-04T02:33:53;101092.00;;;26.70
19282;BMP180;9774;52.034;5.342;2022-08-04T02:36:29;101103.00;;;26.60
19282;BMP180;9774;52.034;5.342;2022-08-04T02:38:59;101102.00;;;26.70
19282;BMP180;9774;52.034;5.342;2022-08-04T02:41:29;101101.00;;;26.60
19282;BMP180;9774;52.034;5.342;2022-08-04T02:43:58;101092.00;;;26.60
19282;BMP180;9774;52.034;5.342;2022-08-04T02:46:26;101102.00;;;26.60
19282;BMP180;9774;52.034;5.342;2022-08-04T02:48:55;101085.00;;;26.60
19282;BMP180;9774;52.034;5.342;2022-08-04T02:51:25;101078.00;;;26.60
19282;BMP180;9774;52.034;5.342;2022-08-04T02:53:55;101081.00;;;26.60
19282;BMP180;9774;52.034;5.342;2022-08-04T02:56:24;101078.00;;;26.60
19282;BMP180;9774;52.034;5.342;2022-08-04T02:58:58;101082.00;;;26.50
19282;BMP180;9774;52.034;5.342;2022-08-04T03:01:25;101077.00;;;26.50
19282;BMP180;9774;52.034;5.342;2022-08-04T03:04:11;101076.00;;;26.40
19282;BMP180;9774;52.034;5.342;2022-08-04T03:07:12;101076.00;;;26.30
19282;BMP180;9774;52.034;5.342;2022-08-04T03:10:02;101075.00;;;26.30
19282;BMP180;9774;52.034;5.342;2022-08-04T03:12:51;101080.00;;;26.40
19282;BMP180;9774;52.034;5.342;2022-08-04T03:15:45;101076.00;;;26.30
19282;BMP180;9774;52.034;5.342;2022-08-04T03:22:04;101075.00;;;26.20
19282;BMP180;9774;52.034;5.342;2022-08-04T03:25:13;101071.00;;;26.20
19282;BMP180;9774;52.034;5.342;2022-08-04T03:31:04;101077.00;;;26.20
19282;BMP180;9774;52.034;5.342;2022-08-04T03:33:49;101070.00;;;26.20
19282;BMP180;9774;52.034;5.342;2022-08-04T03:36:43;101065.00;;;26.10
19282;BMP180;9774;52.034;5.342;2022-08-04T03:42:38;101065.00;;;26.10
19282;BMP180;9774;52.034;5.342;2022-08-04T03:48:38;101061.00;;;26.10
19282;BMP180;9774;52.034;5.342;2022-08-04T03:51:17;101061.00;;;26.10
19282;BMP180;9774;52.034;5.342;2022-08-04T04:00:14;101058.00;;;26.10
19282;BMP180;9774;52.034;5.342;2022-08-04T04:12:39;101058.00;;;25.90
19282;BMP180;9774;52.034;5.342;2022-08-04T04:15:34;101059.00;;;25.90
19282;BMP180;9774;52.034;5.342;2022-08-04T04:18:31;101059.00;;;25.90
19282;BMP180;9774;52.034;5.342;2022-08-04T04:21:22;101055.00;;;25.90
19282;BMP180;9774;52.034;5.342;2022-08-04T04:24:07;101060.00;;;25.90
19282;BMP180;9774;52.034;5.342;2022-08-04T04:26:51;101064.00;;;25.90
19282;BMP180;9774;52.034;5.342;2022-08-04T04:29:35;101060.00;;;25.90
19282;BMP180;9774;52.034;5.342;2022-08-04T04:32:19;101060.00;;;25.90
19282;BMP180;9774;52.034;5.342;2022-08-04T04:34:58;101060.00;;;26.00
19282;BMP180;9774;52.034;5.342;2022-08-04T04:37:48;101061.00;;;25.90
19282;BMP180;9774;52.034;5.342;2022-08-04T04:40:31;101064.00;;;26.00
19282;BMP180;9774;52.034;5.342;2022-08-04T04:43:13;101057.00;;;25.90
19282;BMP180;9774;52.034;5.342;2022-08-04T04:45:48;101067.00;;;26.00
19282;BMP180;9774;52.034;5.342;2022-08-04T04:48:30;101065.00;;;26.00
19282;BMP180;9774;52.034;5.342;2022-08-04T04:51:07;101064.00;;;26.00
19282;BMP180;9774;52.034;5.342;2022-08-04T04:53:44;101056.00;;;26.10
19282;BMP180;9774;52.034;5.342;2022-08-04T04:56:18;101062.00;;;26.10
19282;BMP180;9774;52.034;5.342;2022-08-04T04:58:51;101066.00;;;26.20
19282;BMP180;9774;52.034;5.342;2022-08-04T05:01:45;101074.00;;;26.10
19282;BMP180;9774;52.034;5.342;2022-08-04T05:04:39;101073.00;;;26.10
19282;BMP180;9774;52.034;5.342;2022-08-04T05:07:36;101072.00;;;26.10
19282;BMP180;9774;52.034;5.342;2022-08-04T05:10:14;101085.00;;;26.20
19282;BMP180;9774;52.034;5.342;2022-08-04T05:13:07;101087.00;;;26.20
19282;BMP180;9774;52.034;5.342;2022-08-04T05:15:41;101085.00;;;26.40
19282;BMP180;9774;52.034;5.342;2022-08-04T05:18:13;101080.00;;;26.40
19282;BMP180;9774;52.034;5.342;2022-08-04T05:20:44;101082.00;;;26.50
19282;BMP180;9774;52.034;5.342;2022-08-04T05:23:14;101079.00;;;26.50
19282;BMP180;9774;52.034;5.342;2022-08-04T05:25:46;101076.00;;;26.60
19282;BMP180;9774;52.034;5.342;2022-08-04T05:28:17;101082.00;;;26.60
19282;BMP180;9774;52.034;5.342;2022-08-04T05:30:50;101087.00;;;26.60
19282;BMP180;9774;52.034;5.342;2022-08-04T05:33:24;101077.00;;;26.70
19282;BMP180;9774;52.034;5.342;2022-08-04T05:35:57;101083.00;;;26.70
19282;BMP180;9774;52.034;5.342;2022-08-04T05:38:28;101084.00;;;26.80
19282;BMP180;9774;52.034;5.342;2022-08-04T05:40:57;101081.00;;;26.90
19282;BMP180;9774;52.034;5.342;2022-08-04T05:43:25;101082.00;;;26.90
19282;BMP180;9774;52.034;5.342;2022-08-04T05:45:53;101083.00;;;27.00
19282;BMP180;9774;52.034;5.342;2022-08-04T05:48:24;101077.00;;;27.00
19282;BMP180;9774;52.034;5.342;2022-08-04T05:50:53;101079.00;;;27.10
19282;BMP180;9774;52.034;5.342;2022-08-04T05:53:22;101070.00;;;27.20
19282;BMP180;9774;52.034;5.342;2022-08-04T05:55:51;101073.00;;;27.20
19282;BMP180;9774;52.034;5.342;2022-08-04T05:58:19;101073.00;;;27.30
19282;BMP180;9774;52.034;5.342;2022-08-04T06:00:47;101069.00;;;27.40
19282;BMP180;9774;52.034;5.342;2022-08-04T06:03:16;101074.00;;;27.40
19282;BMP180;9774;52.034;5.342;2022-08-04T06:05:45;101070.00;;;27.50
19282;BMP180;9774;52.034;5.342;2022-08-04T06:08:15;101073.00;;;27.60
19282;BMP180;9774;52.034;5.342;2022-08-04T06:10:44;101070.00;;;27.60
19282;BMP180;9774;52.034;5.342;2022-08-04T06:13:14;101068.00;;;27.70
19282;BMP180;9774;52.034;5.342;2022-08-04T06:15:44;101072.00;;;27.80
19282;BMP180;9774;52.034;5.342;2022-08-04T06:18:13;101066.00;;;27.80
19282;BMP180;9774;52.034;5.342;2022-08-04T06:20:42;101064.00;;;27.90
19282;BMP180;9774;52.034;5.342;2022-08-04T06:23:15;101073.00;;;28.00
19282;BMP180;9774;52.034;5.342;2022-08-04T06:25:47;101073.00;;;28.00
19282;BMP180;9774;52.034;5.342;2022-08-04T06:28:17;101078.00;;;28.10
19282;BMP180;9774;52.034;5.342;2022-08-04T06:30:46;101075.00;;;28.10
19282;BMP180;9774;52.034;5.342;2022-08-04T06:33:16;101073.00;;;28.20
19282;BMP180;9774;52.034;5.342;2022-08-04T06:35:53;101071.00;;;28.20
19282;BMP180;9774;52.034;5.342;2022-08-04T06:38:24;101076.00;;;28.20
19282;BMP180;9774;52.034;5.342;2022-08-04T06:40:53;101078.00;;;28.30
19282;BMP180;9774;52.034;5.342;2022-08-04T06:43:23;101082.00;;;28.30
19282;BMP180;9774;52.034;5.342;2022-08-04T06:45:54;101085.00;;;28.40
19282;BMP180;9774;52.034;5.342;2022-08-04T06:48:23;101082.00;;;28.40
19282;BMP180;9774;52.034;5.342;2022-08-04T06:50:51;101085.00;;;28.40
19282;BMP180;9774;52.034;5.342;2022-08-04T06:53:19;101094.00;;;28.50
19282;BMP180;9774;52.034;5.342;2022-08-04T06:55:49;101099.00;;;28.50
19282;BMP180;9774;52.034;5.342;2022-08-04T06:58:18;101102.00;;;28.50
19282;BMP180;9774;52.034;5.342;2022-08-04T07:00:47;101100.00;;;28.50
19282;BMP180;9774;52.034;5.342;2022-08-04T07:03:16;101109.00;;;28.60
19282;BMP180;9774;52.034;5.342;2022-08-04T07:05:46;101108.00;;;28.60
19282;BMP180;9774;52.034;5.342;2022-08-04T07:08:14;101102.00;;;28.60
19282;BMP180;9774;52.034;5.342;2022-08-04T07:10:42;101103.00;;;28.70
19282;BMP180;9774;52.034;5.342;2022-08-04T07:13:12;101105.00;;;28.70
19282;BMP180;9774;52.034;5.342;2022-08-04T07:15:42;101109.00;;;28.70
19282;BMP180;9774;52.034;5.342;2022-08-04T07:18:10;101114.00;;;28.80
19282;BMP180;9774;52.034;5.342;2022-08-04T07:20:40;101106.00;;;28.80
19282;BMP180;9774;52.034;5.342;2022-08-04T07:23:09;101110.00;;;28.80
19282;BMP180;9774;52.034;5.342;2022-08-04T07:25:39;101113.00;;;28.90
19282;BMP180;9774;52.034;5.342;2022-08-04T07:28:06;101120.00;;;28.90
19282;BMP180;9774;52.034;5.342;2022-08-04T07:30:35;101116.00;;;29.00
19282;BMP180;9774;52.034;5.342;2022-08-04T07:33:03;101118.00;;;29.00
19282;BMP180;9774;52.034;5.342;2022-08-04T07:35:32;101113.00;;;29.10
19282;BMP180;9774;52.034;5.342;2022-08-04T07:38:00;101118.00;;;29.10
19282;BMP180;9774;52.034;5.342;2022-08-04T07:40:28;101115.00;;;29.10
19282;BMP180;9774;52.034;5.342;2022-08-04T07:42:55;101121.00;;;29.20
19282;BMP180;9774;52.034;5.342;2022-08-04T07:45:24;101123.00;;;29.20
19282;BMP180;9774;52.034;5.342;2022-08-04T07:47:52;101125.00;;;29.20
19282;BMP180;9774;52.034;5.342;2022-08-04T07:50:20;101118.00;;;29.30
19282;BMP180;9774;52.034;5.342;2022-08-04T07:52:47;101121.00;;;29.30
19282;BMP180;9774;52.034;5.342;2022-08-04T07:55:15;101120.00;;;29.30
19282;BMP180;9774;52.034;5.342;2022-08-04T07:57:42;101122.00;;;29.40
19282;BMP180;9774;52.034;5.342;2022-08-04T08:00:11;101127.00;;;29.40
19282;BMP180;9774;52.034;5.342;2022-08-04T08:02:40;101132.00;;;29.50
19282;BMP180;9774;52.034;5.342;2022-08-04T08:05:12;101138.00;;;29.50
19282;BMP180;9774;52.034;5.342;2022-08-04T08:07:43;101135.00;;;29.60
19282;BMP180;9774;52.034;5.342;2022-08-04T08:10:12;101137.00;;;29.60
19282;BMP180;9774;52.034;5.342;2022-08-04T08:12:39;101138.00;;;29.70
19282;BMP180;9774;52.034;5.342;2022-08-04T08:15:08;101135.00;;;29.80
19282;BMP180;9774;52.034;5.342;2022-08-04T08:17:38;101142.00;;;29.90
19282;BMP180;9774;52.034;5.342;2022-08-04T08:20:07;101147.00;;;30.00
19282;BMP180;9774;52.034;5.342;2022-08-04T08:22:37;101144.00;;;30.10
19282;BMP180;9774;52.034;5.342;2022-08-04T08:25:05;101136.00;;;30.10
19282;BMP180;9774;52.034;5.342;2022-08-04T08:27:33;101136.00;;;30.20
19282;BMP180;9774;52.034;5.342;2022-08-04T08:30:00;101136.00;;;30.30
19282;BMP180;9774;52.034;5.342;2022-08-04T08:32:27;101139.00;;;30.40
19282;BMP180;9774;52.034;5.342;2022-08-04T08:34:55;101135.00;;;30.40
19282;BMP180;9774;52.034;5.342;2022-08-04T08:37:28;101137.00;;;30.50
19282;BMP180;9774;52.034;5.342;2022-08-04T08:40:07;101136.00;;;30.70
19282;BMP180;9774;52.034;5.342;2022-08-04T08:42:57;101146.00;;;30.80
19282;BMP180;9774;52.034;5.342;2022-08-04T08:45:49;101145.00;;;30.90
19282;BMP180;9774;52.034;5.342;2022-08-04T08:48:55;101143.00;;;31.10
19282;BMP180;9774;52.034;5.342;2022-08-04T08:51:37;101141.00;;;31.30
19282;BMP180;9774;52.034;5.342;2022-08-04T08:54:35;101145.00;;;31.40
19282;BMP180;9774;52.034;5.342;2022-08-04T08:57:19;101142.00;;;31.50
19282;BMP180;9774;52.034;5.342;2022-08-04T08:59:57;101156.00;;;31.60
19282;BMP180;9774;52.034;5.342;2022-08-04T09:02:52;101153.00;;;31.70
19282;BMP180;9774;52.034;5.342;2022-08-04T09:05:39;101162.00;;;31.90
19282;BMP180;9774;52.034;5.342;2022-08-04T09:08:18;101162.00;;;32.00
19282;BMP180;9774;52.034;5.342;2022-08-04T09:10:50;101165.00;;;32.20
19282;BMP180;9774;52.034;5.342;2022-08-04T09:13:23;101166.00;;;32.20
19282;BMP180;9774;52.034;5.342;2022-08-04T09:15:58;101166.00;;;32.40
19282;BMP180;9774;52.034;5.342;2022-08-04T09:18:33;101161.00;;;32.50
19282;BMP180;9774;52.034;5.342;2022-08-04T09:21:09;101158.00;;;32.60
19282;BMP180;9774;52.034;5.342;2022-08-04T09:23:48;101161.00;;;32.60
19282;BMP180;9774;52.034;5.342;2022-08-04T09:26:21;101166.00;;;32.70
19282;BMP180;9774;52.034;5.342;2022-08-04T09:29:03;101168.00;;;32.70
19282;BMP180;9774;52.034;5.342;2022-08-04T09:31:35;101160.00;;;32.80
19282;BMP180;9774;52.034;5.342;2022-08-04T09:34:16;101176.00;;;32.90
19282;BMP180;9774;52.034;5.342;2022-08-04T09:36:49;101181.00;;;33.00
19282;BMP180;9774;52.034;5.342;2022-08-04T09:39:25;101178.00;;;33.00
19282;BMP180;9774;52.034;5.342;2022-08-04T09:42:00;101183.00;;;33.10
19282;BMP180;9774;52.034;5.342;2022-08-04T09:44:39;101190.00;;;33.20
19282;BMP180;9774;52.034;5.342;2022-08-04T09:47:13;101208.00;;;33.30
19282;BMP180;9774;52.034;5.342;2022-08-04T09:49:49;101208.00;;;33.20
19282;BMP180;9774;52.034;5.342;2022-08-04T09:52:26;101207.00;;;33.20
19282;BMP180;9774;52.034;5.342;2022-08-04T09:55:01;101205.00;;;33.20
19282;BMP180;9774;52.034;5.342;2022-08-04T09:57:41;101210.00;;;33.20
19282;BMP180;9774;52.034;5.342;2022-08-04T10:00:13;101216.00;;;33.20
19282;BMP180;9774;52.034;5.342;2022-08-04T10:02:46;101214.00;;;33.20
19282;BMP180;9774;52.034;5.342;2022-08-04T10:05:18;101214.00;;;33.10
19282;BMP180;9774;52.034;5.342;2022-08-04T10:08:03;101225.00;;;33.00
19282;BMP180;9774;52.034;5.342;2022-08-04T10:10:46;101237.00;;;33.00
19282;BMP180;9774;52.034;5.342;2022-08-04T10:13:27;101225.00;;;32.90
19282;BMP180;9774;52.034;5.342;2022-08-04T10:16:10;101234.00;;;32.80
19282;BMP180;9774;52.034;5.342;2022-08-04T10:18:54;101226.00;;;32.70
19282;BMP180;9774;52.034;5.342;2022-08-04T10:21:25;101233.00;;;32.60
19282;BMP180;9774;52.034;5.342;2022-08-04T10:24:10;101251.00;;;32.50
19282;BMP180;9774;52.034;5.342;2022-08-04T10:26:46;101261.00;;;32.50
19282;BMP180;9774;52.034;5.342;2022-08-04T10:29:17;101265.00;;;32.40
19282;BMP180;9774;52.034;5.342;2022-08-04T10:31:54;101256.00;;;32.30
19282;BMP180;9774;52.034;5.342;2022-08-04T10:34:26;101261.00;;;32.20
19282;BMP180;9774;52.034;5.342;2022-08-04T10:36:59;101265.00;;;32.20
19282;BMP180;9774;52.034;5.342;2022-08-04T10:39:36;101263.00;;;32.10
19282;BMP180;9774;52.034;5.342;2022-08-04T10:42:15;101265.00;;;32.00
19282;BMP180;9774;52.034;5.342;2022-08-04T10:44:54;101258.00;;;31.90
19282;BMP180;9774;52.034;5.342;2022-08-04T10:47:34;101250.00;;;31.80
19282;BMP180;9774;52.034;5.342;2022-08-04T10:50:04;101263.00;;;31.80
19282;BMP180;9774;52.034;5.342;2022-08-04T10:52:43;101291.00;;;31.70
19282;BMP180;9774;52.034;5.342;2022-08-04T10:55:15;101280.00;;;31.60
19282;BMP180;9774;52.034;5.342;2022-08-04T10:57:46;101285.00;;;31.60
19282;BMP180;9774;52.034;5.342;2022-08-04T11:00:20;101275.00;;;31.50
19282;BMP180;9774;52.034;5.342;2022-08-04T11:02:54;101288.00;;;31.40
19282;BMP180;9774;52.034;5.342;2022-08-04T11:05:28;101299.00;;;31.40
19282;BMP180;9774;52.034;5.342;2022-08-04T11:08:00;101303.00;;;31.30
19282;BMP180;9774;52.034;5.342;2022-08-04T11:10:32;101299.00;;;31.30
19282;BMP180;9774;52.034;5.342;2022-08-04T11:13:04;101284.00;;;31.20
19282;BMP180;9774;52.034;5.342;2022-08-04T11:15:35;101280.00;;;31.20
19282;BMP180;9774;52.034;5.342;2022-08-04T11:18:09;101277.00;;;31.10
19282;BMP180;9774;52.034;5.342;2022-08-04T11:20:43;101273.00;;;31.10
19282;BMP180;9774;52.034;5.342;2022-08-04T11:23:15;101260.00;;;31.10
19282;BMP180;9774;52.034;5.342;2022-08-04T11:25:51;101248.00;;;31.00
19282;BMP180;9774;52.034;5.342;2022-08-04T11:28:27;101244.00;;;31.00
19282;BMP180;9774;52.034;5.342;2022-08-04T11:31:02;101246.00;;;31.00
19282;BMP180;9774;52.034;5.342;2022-08-04T11:33:36;101236.00;;;31.00
19282;BMP180;9774;52.034;5.342;2022-08-04T11:36:13;101237.00;;;31.00
19282;BMP180;9774;52.034;5.342;2022-08-04T11:38:47;101251.00;;;31.00
19282;BMP180;9774;52.034;5.342;2022-08-04T11:41:18;101256.00;;;31.10
19282;BMP180;9774;52.034;5.342;2022-08-04T11:43:52;101258.00;;;31.20
19282;BMP180;9774;52.034;5.342;2022-08-04T11:46:25;101265.00;;;31.20
19282;BMP180;9774;52.034;5.342;2022-08-04T11:49:02;101260.00;;;31.30
19282;BMP180;9774;52.034;5.342;2022-08-04T11:51:32;101263.00;;;31.40
19282;BMP180;9774;52.034;5.342;2022-08-04T11:54:01;101251.00;;;31.50
19282;BMP180;9774;52.034;5.342;2022-08-04T11:56:28;101244.00;;;31.60
19282;BMP180;9774;52.034;5.342;2022-08-04T11:58:58;101245.00;;;31.70
19282;BMP180;9774;52.034;5.342;2022-08-04T12:01:33;101244.00;;;31.70
19282;BMP180;9774;52.034;5.342;2022-08-04T12:04:09;101239.00;;;31.80
19282;BMP180;9774;52.034;5.342;2022-08-04T12:06:44;101238.00;;;31.80
19282;BMP180;9774;52.034;5.342;2022-08-04T12:09:21;101241.00;;;31.90
19282;BMP180;9774;52.034;5.342;2022-08-04T12:11:59;101251.00;;;32.00
19282;BMP180;9774;52.034;5.342;2022-08-04T12:14:37;101238.00;;;32.10
19282;BMP180;9774;52.034;5.342;2022-08-04T12:17:06;101246.00;;;32.20
19282;BMP180;9774;52.034;5.342;2022-08-04T12:19:40;101258.00;;;32.30
19282;BMP180;9774;52.034;5.342;2022-08-04T12:22:14;101257.00;;;32.30
19282;BMP180;9774;52.034;5.342;2022-08-04T12:24:45;101260.00;;;32.40
19282;BMP180;9774;52.034;5.342;2022-08-04T12:27:16;101265.00;;;32.50
19282;BMP180;9774;52.034;5.342;2022-08-04T12:29:45;101261.00;;;32.60
19282;BMP180;9774;52.034;5.342;2022-08-04T12:32:24;101264.00;;;32.60
19282;BMP180;9774;52.034;5.342;2022-08-04T12:35:05;101274.00;;;32.70
19282;BMP180;9774;52.034;5.342;2022-08-04T12:37:40;101264.00;;;32.70
19282;BMP180;9774;52.034;5.342;2022-08-04T12:40:15;101261.00;;;32.80
19282;BMP180;9774;52.034;5.342;2022-08-04T12:42:47;101267.00;;;32.90
19282;BMP180;9774;52.034;5.342;2022-08-04T12:45:19;101267.00;;;33.00
19282;BMP180;9774;52.034;5.342;2022-08-04T12:47:49;101259.00;;;33.00
19282;BMP180;9774;52.034;5.342;2022-08-04T12:50:18;101259.00;;;33.00
19282;BMP180;9774;52.034;5.342;2022-08-04T12:52:47;101259.00;;;33.10
19282;BMP180;9774;52.034;5.342;2022-08-04T12:55:17;101254.00;;;33.10
19282;BMP180;9774;52.034;5.342;2022-08-04T12:57:47;101251.00;;;33.20
19282;BMP180;9774;52.034;5.342;2022-08-04T13:00:23;101257.00;;;33.10
19282;BMP180;9774;52.034;5.342;2022-08-04T13:02:52;101260.00;;;33.20
19282;BMP180;9774;52.034;5.342;2022-08-04T13:05:22;101260.00;;;33.20
19282;BMP180;9774;52.034;5.342;2022-08-04T13:07:52;101259.00;;;33.30
19282;BMP180;9774;52.034;5.342;2022-08-04T13:10:21;101260.00;;;33.30
19282;BMP180;9774;52.034;5.342;2022-08-04T13:12:54;101258.00;;;33.30
19282;BMP180;9774;52.034;5.342;2022-08-04T13:15:23;101262.00;;;33.40
19282;BMP180;9774;52.034;5.342;2022-08-04T13:17:54;101262.00;;;33.40
19282;BMP180;9774;52.034;5.342;2022-08-04T13:20:28;101271.00;;;33.40
19282;BMP180;9774;52.034;5.342;2022-08-04T13:23:03;101271.00;;;33.40
19282;BMP180;9774;52.034;5.342;2022-08-04T13:25:31;101276.00;;;33.50
19282;BMP180;9774;52.034;5.342;2022-08-04T13:27:59;101276.00;;;33.50
19282;BMP180;9774;52.034;5.342;2022-08-04T13:30:27;101279.00;;;33.50
19282;BMP180;9774;52.034;5.342;2022-08-04T13:32:59;101276.00;;;33.60
19282;BMP180;9774;52.034;5.342;2022-08-04T13:35:28;101281.00;;;33.50
19282;BMP180;9774;52.034;5.342;2022-08-04T13:37:56;101281.00;;;33.60
19282;BMP180;9774;52.034;5.342;2022-08-04T13:40:26;101285.00;;;33.50
19282;BMP180;9774;52.034;5.342;2022-08-04T13:42:55;101277.00;;;33.50
19282;BMP180;9774;52.034;5.342;2022-08-04T13:45:24;101281.00;;;33.50
19282;BMP180;9774;52.034;5.342;2022-08-04T13:47:58;101282.00;;;33.40
19282;BMP180;9774;52.034;5.342;2022-08-04T13:50:28;101286.00;;;33.40
19282;BMP180;9774;52.034;5.342;2022-08-04T13:52:57;101282.00;;;33.50
19282;BMP180;9774;52.034;5.342;2022-08-04T13:55:28;101291.00;;;33.60
19282;BMP180;9774;52.034;5.342;2022-08-04T13:57:59;101291.00;;;33.70
19282;BMP180;9774;52.034;5.342;2022-08-04T14:00:41;101285.00;;;33.70
19282;BMP180;9774;52.034;5.342;2022-08-04T14:03:15;101282.00;;;33.70
19282;BMP180;9774;52.034;5.342;2022-08-04T14:06:06;101286.00;;;33.70
19282;BMP180;9774;52.034;5.342;2022-08-04T14:08:42;101288.00;;;33.70
19282;BMP180;9774;52.034;5.342;2022-08-04T14:11:11;101287.00;;;33.70
19282;BMP180;9774;52.034;5.342;2022-08-04T14:13:39;101287.00;;;33.70
19282;BMP180;9774;52.034;5.342;2022-08-04T14:16:14;101281.00;;;33.60
19282;BMP180;9774;52.034;5.342;2022-08-04T14:18:41;101278.00;;;33.70
19282;BMP180;9774;52.034;5.342;2022-08-04T14:21:11;101284.00;;;33.70
19282;BMP180;9774;52.034;5.342;2022-08-04T14:23:48;101283.00;;;33.60
19282;BMP180;9774;52.034;5.342;2022-08-04T14:26:19;101279.00;;;33.70
19282;BMP180;9774;52.034;5.342;2022-08-04T14:28:47;101277.00;;;33.70
19282;BMP180;9774;52.034;5.342;2022-08-04T14:31:16;101287.00;;;33.60
19282;BMP180;9774;52.034;5.342;2022-08-04T14:33:45;101282.00;;;33.60
19282;BMP180;9774;52.034;5.342;2022-08-04T14:36:14;101281.00;;;33.50
19282;BMP180;9774;52.034;5.342;2022-08-04T14:38:59;101277.00;;;33.40
19282;BMP180;9774;52.034;5.342;2022-08-04T14:41:28;101281.00;;;33.50
19282;BMP180;9774;52.034;5.342;2022-08-04T14:43:58;101277.00;;;33.50
19282;BMP180;9774;52.034;5.342;2022-08-04T14:46:26;101270.00;;;33.50
19282;BMP180;9774;52.034;5.342;2022-08-04T14:49:06;101272.00;;;33.40
19282;BMP180;9774;52.034;5.342;2022-08-04T14:51:36;101272.00;;;33.40
19282;BMP180;9774;52.034;5.342;2022-08-04T14:54:04;101277.00;;;33.40
19282;BMP180;9774;52.034;5.342;2022-08-04T14:56:32;101273.00;;;33.40
19282;BMP180;9774;52.034;5.342;2022-08-04T14:59:02;101279.00;;;33.40
19282;BMP180;9774;52.034;5.342;2022-08-04T15:01:31;101286.00;;;33.40
19282;BMP180;9774;52.034;5.342;2022-08-04T15:04:00;101287.00;;;33.30
19282;BMP180;9774;52.034;5.342;2022-08-04T15:06:29;101284.00;;;33.30
19282;BMP180;9774;52.034;5.342;2022-08-04T15:09:00;101285.00;;;33.30
19282;BMP180;9774;52.034;5.342;2022-08-04T15:11:28;101280.00;;;33.20
19282;BMP180;9774;52.034;5.342;2022-08-04T15:13:56;101282.00;;;33.20
19282;BMP180;9774;52.034;5.342;2022-08-04T15:16:26;101295.00;;;33.20
19282;BMP180;9774;52.034;5.342;2022-08-04T15:18:54;101288.00;;;33.20